Time;durP1;ratioP1;P1;durP2;ratioP2;P2;SDS_P1;SDS_P2;PMS_P1;PMS_P2;Temp;Humidity;BMP_temperature;BMP_pressure;BME280_temperature;BME280_humidity;BME280_pressure;Samples;Min_cycle;Max_cycle;Signal;HPM_P1;HPM_P2
2024/03/21 00:00:17;;;;;;;30.60;18.27;;;7.30;78.30;;;;;;4984094;28;20389;-69
2024/03/21 00:02:46;;;;;;;33.35;19.08;;;7.10;78.60;;;;;;4969191;28;20081;-70
2024/03/21 00:05:14;;;;;;;36.08;20.23;;;7.20;79.10;;;;;;4979448;28;20091;-70
2024/03/21 00:07:45;;;;;;;37.70;21.15;;;7.10;78.90;;;;;;4972469;28;20474;-68
2024/03/21 00:10:16;;;;;;;41.47;21.55;;;6.90;80.50;;;;;;4985052;28;20045;-69
2024/03/21 00:12:42;;;;;;;;;;;6.80;81.30;;;;;;4975251;28;20041;-69
2024/03/21 00:15:09;;;;;;;43.55;23.02;;;6.70;82.10;;;;;;4986730;28;20302;-69
2024/03/21 00:17:36;;;;;;;35.90;23.90;;;6.90;81.40;;;;;;4982801;28;20030;-71
2024/03/21 00:20:05;;;;;;;38.50;22.58;;;6.70;82.10;;;;;;4953074;28;20504;-68
2024/03/21 00:22:31;;;;;;;36.15;21.38;;;6.80;82.10;;;;;;4972415;28;20049;-68
2024/03/21 00:24:57;;;;;;;37.35;21.13;;;6.90;81.40;;;;;;4975695;28;20519;-70
2024/03/21 00:27:25;;;;;;;39.47;22.55;;;6.80;80.60;;;;;;4972096;28;20500;-70
2024/03/21 00:29:51;;;;;;;40.53;23.65;;;6.80;81.80;;;;;;4977196;28;20034;-68
2024/03/21 00:32:17;;;;;;;40.08;22.63;;;6.90;82.00;;;;;;4971310;28;20061;-69
2024/03/21 00:34:43;;;;;;;41.85;23.42;;;6.90;82.30;;;;;;4985334;28;20048;-69
2024/03/21 00:37:10;;;;;;;44.28;25.23;;;6.90;82.20;;;;;;4978552;28;20108;-69
2024/03/21 00:39:38;;;;;;;46.30;23.63;;;6.80;82.60;;;;;;4976587;28;20045;-69
2024/03/21 00:42:04;;;;;;;35.15;23.25;;;6.70;82.70;;;;;;4971763;28;20389;-66
2024/03/21 00:44:31;;;;;;;34.58;21.60;;;6.70;83.00;;;;;;4979801;28;20061;-70
2024/03/21 00:46:57;;;;;;;31.38;19.23;;;6.60;82.70;;;;;;4971176;28;20041;-70
2024/03/21 00:49:23;;;;;;;28.92;16.77;;;6.50;83.10;;;;;;4984534;28;20040;-70
2024/03/21 00:51:49;;;;;;;26.00;16.42;;;6.40;82.80;;;;;;4945365;28;20512;-69
2024/03/21 00:54:15;;;;;;;23.33;15.07;;;6.40;82.00;;;;;;5002732;28;20034;-69
2024/03/21 00:56:42;;;;;;;27.13;16.70;;;6.50;81.70;;;;;;4981335;28;20030;-68
2024/03/21 00:59:08;;;;;;;23.40;14.77;;;6.50;81.90;;;;;;4977795;28;20075;-68
2024/03/21 01:01:35;;;;;;;21.67;15.68;;;6.30;82.20;;;;;;4986047;28;20069;-69
2024/03/21 01:04:01;;;;;;;27.20;16.17;;;6.20;82.20;;;;;;4980449;28;20030;-69
2024/03/21 01:06:27;;;;;;;23.55;16.20;;;5.90;83.20;;;;;;4972754;28;20049;-69
2024/03/21 01:08:53;;;;;;;25.83;15.93;;;5.90;84.00;;;;;;4960393;28;20038;-67
2024/03/21 01:11:19;;;;;;;25.65;15.80;;;6.00;83.40;;;;;;4976449;28;20079;-68
2024/03/21 01:13:46;;;;;;;23.30;16.63;;;6.00;83.80;;;;;;4973535;28;20370;-70
2024/03/21 01:16:12;;;;;;;27.88;16.27;;;6.00;84.00;;;;;;4970206;28;20065;-70
2024/03/21 01:18:38;;;;;;;24.85;16.10;;;6.00;83.40;;;;;;4976801;28;20035;-67
2024/03/21 01:21:05;;;;;;;24.33;15.75;;;6.00;83.70;;;;;;4971216;28;20042;-69
2024/03/21 01:23:32;;;;;;;28.65;15.55;;;6.00;83.50;;;;;;4971625;28;20111;-69
2024/03/21 01:25:59;;;;;;;24.63;16.25;;;5.90;83.60;;;;;;4981404;28;20038;-67
2024/03/21 01:28:25;;;;;;;26.42;15.38;;;5.80;84.30;;;;;;4971379;28;20499;-69
2024/03/21 01:30:51;;;;;;;25.30;16.25;;;5.80;84.70;;;;;;4970434;28;20052;-68
2024/03/21 01:33:21;;;;;;;28.65;15.30;;;5.80;84.70;;;;;;4983737;28;20037;-71
2024/03/21 01:35:47;;;;;;;26.67;16.40;;;5.70;84.60;;;;;;4971158;28;20031;-67
2024/03/21 01:38:13;;;;;;;25.55;15.63;;;5.80;84.50;;;;;;4981489;28;20030;-69
2024/03/21 01:40:41;;;;;;;24.65;15.88;;;5.50;86.00;;;;;;4970834;28;20026;-71
2024/03/21 01:43:24;;;;;;;25.65;16.38;;;5.60;85.80;;;;;;4981629;28;20091;-70
2024/03/21 01:46:16;;;;;;;23.50;15.18;;;5.60;85.80;;;;;;4974328;28;20038;-70
2024/03/21 01:48:48;;;;;;;27.00;16.77;;;5.60;85.50;;;;;;4983149;28;20038;-69
2024/03/21 01:51:18;;;;;;;24.50;15.95;;;5.70;85.60;;;;;;4986776;28;20050;-71
2024/03/21 01:53:51;;;;;;;29.52;15.75;;;5.70;85.40;;;;;;4974522;28;20030;-70
2024/03/21 01:56:17;;;;;;;25.77;16.48;;;5.50;85.60;;;;;;4988533;28;20042;-69
2024/03/21 01:58:43;;;;;;;24.88;16.10;;;5.40;86.90;;;;;;4981013;28;20470;-70
2024/03/21 02:01:31;;;;;;;23.08;15.63;;;5.40;86.70;;;;;;4973273;28;20069;-69
2024/03/21 02:03:59;;;;;;;23.58;15.40;;;5.30;86.90;;;;;;4962604;28;20034;-70
2024/03/21 02:06:28;;;;;;;21.10;14.18;;;5.30;87.10;;;;;;4973874;28;20479;-69
2024/03/21 02:08:55;;;;;;;22.85;14.48;;;5.20;86.80;;;;;;4977840;28;20419;-68
2024/03/21 02:11:22;;;;;;;23.52;14.40;;;5.10;87.40;;;;;;4980505;28;20038;-67
2024/03/21 02:13:54;;;;;;;19.15;13.75;;;5.20;87.60;;;;;;4976582;28;20464;-69
2024/03/21 02:16:22;;;;;;;20.15;13.88;;;5.20;87.10;;;;;;4958079;28;20088;-68
2024/03/21 02:18:51;;;;;;;22.42;13.68;;;5.30;86.50;;;;;;4978020;28;20038;-69
2024/03/21 02:24:02;;;;;;;22.42;13.93;;;5.00;88.00;;;;;;4973809;28;20079;-69
2024/03/21 02:26:29;;;;;;;23.63;13.15;;;5.00;87.40;;;;;;4961448;28;20046;-69
2024/03/21 02:28:55;;;;;;;19.05;12.85;;;4.80;88.30;;;;;;4957771;28;20042;-67
2024/03/21 02:31:22;;;;;;;23.45;13.95;;;5.00;88.90;;;;;;4992677;28;20045;-69
2024/03/21 02:33:49;;;;;;;27.52;13.20;;;5.20;87.80;;;;;;4973935;28;20484;-69
2024/03/21 02:36:15;;;;;;;22.05;13.90;;;5.10;87.50;;;;;;4973580;28;20039;-70
2024/03/21 02:38:42;;;;;;;22.17;13.27;;;5.20;87.40;;;;;;4973923;28;20034;-67
2024/03/21 02:41:08;;;;;;;17.88;13.38;;;5.00;87.20;;;;;;4973446;28;20117;-69
2024/03/21 02:43:34;;;;;;;22.30;13.82;;;4.70;89.00;;;;;;4973760;28;20038;-69
2024/03/21 02:46:01;;;;;;;19.42;13.77;;;4.80;88.80;;;;;;4985944;28;20034;-70
2024/03/21 02:48:28;;;;;;;21.65;13.45;;;4.80;88.60;;;;;;4973882;28;20042;-68
2024/03/21 02:50:54;;;;;;;20.52;13.20;;;4.90;88.10;;;;;;4973275;28;20043;-68
2024/03/21 02:53:21;;;;;;;19.85;13.98;;;4.90;88.80;;;;;;4956629;28;20495;-69
2024/03/21 02:55:48;;;;;;;21.90;13.30;;;4.70;88.40;;;;;;4975813;28;20050;-70
2024/03/21 02:58:14;;;;;;;20.75;13.18;;;4.70;89.00;;;;;;4992704;28;20049;-68
2024/03/21 03:00:40;;;;;;;23.90;13.60;;;4.70;88.90;;;;;;4976829;28;20405;-67
2024/03/21 03:03:07;;;;;;;22.80;13.50;;;4.70;89.00;;;;;;4973574;28;20046;-67
2024/03/21 03:05:42;;;;;;;18.73;13.48;;;4.80;88.30;;;;;;4973211;28;20171;-69
2024/03/21 03:08:09;;;;;;;19.38;14.18;;;4.80;87.90;;;;;;4984244;28;20038;-69
2024/03/21 03:10:38;;;;;;;24.45;13.45;;;4.80;87.70;;;;;;4975503;28;20030;-68
2024/03/21 03:13:04;;;;;;;18.75;13.63;;;4.80;87.90;;;;;;4980748;28;20045;-69
2024/03/21 03:15:31;;;;;;;17.70;12.90;;;4.80;87.50;;;;;;5042143;28;20022;-68
2024/03/21 03:17:58;;;;;;;21.00;12.70;;;4.90;87.20;;;;;;4982407;28;20046;-67
2024/03/21 03:20:25;;;;;;;17.35;12.90;;;4.70;87.30;;;;;;4973564;28;20416;-68
2024/03/21 03:22:52;;;;;;;18.10;12.52;;;4.70;87.90;;;;;;4973101;28;20119;-70
2024/03/21 03:25:18;;;;;;;22.33;12.82;;;4.20;89.00;;;;;;4973024;28;20043;-69
2024/03/21 03:27:44;;;;;;;23.40;13.65;;;4.00;90.40;;;;;;4973518;28;20041;-71
2024/03/21 03:30:11;;;;;;;18.17;12.13;;;4.30;90.10;;;;;;4965180;28;20050;-69
2024/03/21 03:32:47;;;;;;;17.10;12.30;;;4.40;89.30;;;;;;4972937;28;20034;-69
2024/03/21 03:37:59;;;;;;;14.93;11.02;;;4.40;89.60;;;;;;4972643;28;20031;-69
2024/03/21 03:40:26;;;;;;;19.27;11.60;;;4.20;89.30;;;;;;4972335;28;20041;-67
2024/03/21 03:42:52;;;;;;;14.18;11.10;;;4.20;89.90;;;;;;4972513;28;20065;-69
2024/03/21 03:45:21;;;;;;;20.08;12.45;;;4.30;89.60;;;;;;4972612;28;20038;-70
2024/03/21 03:47:47;;;;;;;17.30;11.27;;;4.20;90.00;;;;;;4972393;28;20058;-67
2024/03/21 03:50:13;;;;;;;18.27;11.50;;;4.40;89.40;;;;;;4972356;28;20039;-69
2024/03/21 03:52:40;;;;;;;17.45;11.88;;;4.50;89.20;;;;;;4975186;28;20103;-69
2024/03/21 03:55:06;;;;;;;16.15;12.10;;;4.60;88.90;;;;;;4982001;28;20107;-69
2024/03/21 03:57:32;;;;;;;19.98;12.00;;;4.60;88.70;;;;;;4985204;28;20037;-70
2024/03/21 04:00:01;;;;;;;19.10;11.30;;;4.30;88.70;;;;;;4956307;28;20046;-68
2024/03/21 04:02:29;;;;;;;14.90;10.73;;;4.40;90.10;;;;;;4973249;28;20030;-69
2024/03/21 04:04:55;;;;;;;19.25;11.43;;;4.30;89.80;;;;;;4980539;28;20487;-68
2024/03/21 04:07:23;;;;;;;19.15;11.60;;;4.30;90.00;;;;;;4956378;28;20066;-70
2024/03/21 04:09:50;;;;;;;16.52;11.57;;;4.40;90.00;;;;;;4979814;28;20436;-66
2024/03/21 04:12:16;;;;;;;18.60;12.45;;;4.30;89.40;;;;;;4984369;28;20076;-68
2024/03/21 04:14:45;;;;;;;16.52;11.65;;;4.10;90.00;;;;;;4972092;28;20050;-69
2024/03/21 04:17:12;;;;;;;23.92;12.55;;;4.00;90.30;;;;;;4968787;28;20031;-72
2024/03/21 04:19:38;;;;;;;17.88;12.15;;;4.10;90.50;;;;;;4965431;28;20495;-69
2024/03/21 04:22:04;;;;;;;19.13;11.57;;;4.10;90.60;;;;;;4982009;28;20042;-69
2024/03/21 04:24:31;;;;;;;18.85;12.15;;;4.00;90.40;;;;;;4974477;28;20043;-70
2024/03/21 04:26:57;;;;;;;17.60;12.43;;;4.00;90.70;;;;;;4971886;28;20034;-69
2024/03/21 04:29:23;;;;;;;17.70;12.43;;;4.00;90.50;;;;;;4972114;28;20056;-70
2024/03/21 04:31:49;;;;;;;18.63;12.65;;;4.00;90.60;;;;;;4975778;28;20034;-68
2024/03/21 04:34:15;;;;;;;23.17;13.55;;;3.90;90.50;;;;;;4980953;28;20091;-67
2024/03/21 04:36:42;;;;;;;18.45;12.55;;;3.80;90.90;;;;;;4984192;28;20358;-69
2024/03/21 04:39:08;;;;;;;16.92;12.38;;;3.90;90.80;;;;;;4971891;28;20038;-69
2024/03/21 04:41:34;;;;;;;20.17;12.85;;;3.90;90.60;;;;;;4971449;28;20045;-66
2024/03/21 04:44:00;;;;;;;19.50;12.27;;;3.80;90.90;;;;;;4971737;28;20042;-68
2024/03/21 04:46:26;;;;;;;18.08;12.60;;;3.90;90.50;;;;;;4971657;28;20023;-68
2024/03/21 04:48:53;;;;;;;21.90;14.57;;;3.70;91.00;;;;;;4971851;28;20042;-68
2024/03/21 04:51:19;;;;;;;21.67;14.63;;;3.80;91.00;;;;;;4976129;28;20084;-68
2024/03/21 04:53:45;;;;;;;25.30;14.13;;;3.90;90.70;;;;;;4979159;28;20034;-67
2024/03/21 04:56:11;;;;;;;21.75;14.13;;;4.00;90.40;;;;;;4972736;28;20031;-67
2024/03/21 04:58:38;;;;;;;23.98;14.18;;;3.80;90.70;;;;;;4971294;28;20074;-69
2024/03/21 05:01:07;;;;;;;20.73;13.40;;;3.90;90.90;;;;;;4983539;28;20427;-67
2024/03/21 05:03:33;;;;;;;23.70;14.60;;;4.20;90.40;;;;;;4957626;28;20440;-68
2024/03/21 05:06:00;;;;;;;24.10;14.05;;;4.00;90.70;;;;;;4983449;28;20039;-68
2024/03/21 05:08:26;;;;;;;20.20;13.43;;;4.20;90.40;;;;;;4971458;28;20041;-67
2024/03/21 05:10:52;;;;;;;20.80;14.52;;;4.30;90.30;;;;;;4971341;28;20087;-69
2024/03/21 05:13:19;;;;;;;25.58;14.25;;;4.20;90.30;;;;;;4983993;28;20405;-69
2024/03/21 05:15:51;;;;;;;24.63;14.77;;;4.20;90.40;;;;;;4982406;28;20433;-69
2024/03/21 05:18:19;;;;;;;21.90;14.02;;;4.10;90.20;;;;;;4970384;28;20119;-66
2024/03/21 05:20:45;;;;;;;19.92;14.57;;;4.10;90.70;;;;;;4999264;28;20046;-67
2024/03/21 05:23:12;;;;;;;20.33;14.55;;;4.30;90.40;;;;;;4971648;28;20030;-68
2024/03/21 05:25:39;;;;;;;21.83;13.70;;;4.40;89.70;;;;;;4967902;28;20043;-67
2024/03/21 05:28:05;;;;;;;20.40;13.43;;;4.50;90.10;;;;;;4971427;28;20051;-70
2024/03/21 05:30:31;;;;;;;20.80;12.70;;;4.60;89.10;;;;;;4998847;28;20038;-70
2024/03/21 05:32:57;;;;;;;23.35;13.70;;;4.20;88.90;;;;;;4984204;28;20034;-67
2024/03/21 05:35:24;;;;;;;20.58;13.35;;;4.20;89.90;;;;;;4973103;28;20034;-67
2024/03/21 05:37:50;;;;;;;22.40;14.10;;;4.20;90.10;;;;;;4980092;28;20039;-68
2024/03/21 05:40:16;;;;;;;22.73;13.98;;;4.50;89.40;;;;;;4970550;28;20039;-69
2024/03/21 05:42:43;;;;;;;18.83;13.35;;;4.80;88.40;;;;;;4970921;28;20034;-69
2024/03/21 05:45:09;;;;;;;19.42;13.13;;;5.00;87.50;;;;;;4983651;28;20038;-69
2024/03/21 05:47:35;;;;;;;18.98;12.98;;;4.80;86.80;;;;;;4970282;28;20030;-69
2024/03/21 05:50:03;;;;;;;16.08;12.43;;;4.80;88.30;;;;;;4971023;28;20390;-69
2024/03/21 05:52:29;;;;;;;21.60;14.05;;;4.70;87.70;;;;;;4967129;28;20053;-66
2024/03/21 05:54:58;;;;;;;17.17;12.85;;;4.90;87.90;;;;;;4977772;28;20393;-67
2024/03/21 05:57:24;;;;;;;22.95;12.07;;;4.90;87.70;;;;;;4970572;28;20100;-68
2024/03/21 05:59:54;;;;;;;24.08;13.52;;;4.90;88.70;;;;;;4974884;28;20038;-70
2024/03/21 06:02:20;;;;;;;18.90;13.48;;;5.20;87.80;;;;;;4970646;28;20038;-67
2024/03/21 06:04:47;;;;;;;24.63;13.55;;;5.40;87.20;;;;;;4970902;28;20378;-68
2024/03/21 06:07:13;;;;;;;20.27;12.82;;;5.60;87.00;;;;;;4977594;28;20043;-69
2024/03/21 06:09:39;;;;;;;20.30;12.02;;;5.50;85.50;;;;;;4972824;28;20031;-69
2024/03/21 06:12:06;;;;;;;20.50;13.30;;;5.30;86.00;;;;;;4980743;28;20383;-67
2024/03/21 06:14:33;;;;;;;17.55;13.32;;;5.40;87.00;;;;;;4986154;28;20030;-69
2024/03/21 06:17:00;;;;;;;104.47;50.58;;;4.90;88.60;;;;;;4977514;28;20034;-67
2024/03/21 06:19:26;;;;;;;76.95;42.33;;;5.60;90.10;;;;;;4980131;28;20035;-69
2024/03/21 06:21:53;;;;;;;27.92;18.85;;;6.10;88.00;;;;;;4969022;28;20041;-68
2024/03/21 06:24:20;;;;;;;18.85;14.20;;;6.10;85.00;;;;;;4970123;28;20080;-67
2024/03/21 06:26:46;;;;;;;16.63;12.10;;;6.10;84.40;;;;;;4970072;28;20385;-67
2024/03/21 06:29:12;;;;;;;120.45;65.55;;;6.10;83.70;;;;;;4971253;28;20034;-70
2024/03/21 06:31:39;;;;;;;117.15;62.55;;;6.20;85.90;;;;;;4975961;28;20035;-69
2024/03/21 06:34:05;;;;;;;24.00;18.00;;;6.50;87.20;;;;;;4993064;28;20053;-71
2024/03/21 06:36:31;;;;;;;21.65;14.30;;;6.50;83.50;;;;;;4979989;28;20030;-69
2024/03/21 06:38:58;;;;;;;19.38;12.68;;;6.20;84.00;;;;;;4973803;28;20103;-69
2024/03/21 06:41:25;;;;;;;21.40;12.30;;;6.20;84.00;;;;;;4960330;28;20038;-70
2024/03/21 06:43:51;;;;;;;15.27;11.50;;;6.30;84.00;;;;;;4977008;28;20038;-70
2024/03/21 06:46:17;;;;;;;18.15;12.07;;;6.20;84.00;;;;;;4973376;28;20079;-69
2024/03/21 06:48:43;;;;;;;18.10;12.05;;;6.30;83.40;;;;;;4974615;28;20034;-70
2024/03/21 06:51:09;;;;;;;17.23;12.38;;;6.40;83.20;;;;;;4972792;28;20038;-69
2024/03/21 06:53:36;;;;;;;16.00;12.18;;;6.40;83.10;;;;;;4973119;28;20036;-69
2024/03/21 06:56:02;;;;;;;19.48;13.00;;;6.40;82.60;;;;;;4973429;28;20406;-70
2024/03/21 06:58:30;;;;;;;18.25;11.93;;;6.30;83.00;;;;;;4974434;28;20034;-70
2024/03/21 07:00:56;;;;;;;17.48;12.02;;;6.50;82.80;;;;;;4980016;28;20350;-70
2024/03/21 07:03:22;;;;;;;24.70;12.20;;;6.60;82.40;;;;;;4993120;28;20042;-69
2024/03/21 07:05:49;;;;;;;43.35;23.88;;;6.50;82.60;;;;;;4973144;28;20030;-68
2024/03/21 07:08:16;;;;;;;91.28;50.22;;;6.60;84.70;;;;;;4970489;28;20061;-69
2024/03/21 07:10:42;;;;;;;26.80;17.13;;;7.40;84.70;;;;;;4976911;28;20027;-72
2024/03/21 07:13:09;;;;;;;18.00;12.05;;;7.20;81.00;;;;;;4965860;28;20034;-69
2024/03/21 07:15:41;;;;;;;18.35;12.43;;;6.90;81.90;;;;;;5055901;28;20033;-67
2024/03/21 07:18:07;;;;;;;17.63;11.65;;;6.80;82.00;;;;;;4979142;28;20063;-67
2024/03/21 07:20:34;;;;;;;18.10;11.02;;;6.90;83.20;;;;;;4979637;28;20034;-68
2024/03/21 07:23:00;;;;;;;17.38;11.82;;;7.00;82.60;;;;;;4979313;28;20030;-70
2024/03/21 07:25:26;;;;;;;17.27;11.65;;;6.90;83.10;;;;;;4980378;28;20043;-68
2024/03/21 07:27:53;;;;;;;16.60;11.68;;;7.00;83.10;;;;;;4972131;28;20049;-70
2024/03/21 07:30:19;;;;;;;17.23;11.32;;;7.10;82.80;;;;;;4956167;28;20069;-69
2024/03/21 07:32:49;;;;;;;15.50;11.48;;;7.20;82.60;;;;;;4972058;28;20092;-68
2024/03/21 07:35:16;;;;;;;16.60;11.75;;;7.20;82.00;;;;;;4972524;28;20057;-69
2024/03/21 07:37:42;;;;;;;18.27;12.45;;;7.40;81.90;;;;;;4973082;28;20041;-69
2024/03/21 07:40:09;;;;;;;16.67;12.00;;;7.40;82.20;;;;;;4971152;28;20038;-70
2024/03/21 07:42:35;;;;;;;14.95;11.07;;;7.30;81.60;;;;;;4972463;28;20039;-70
2024/03/21 07:45:03;;;;;;;18.08;11.82;;;7.40;81.40;;;;;;4956518;28;20046;-70
2024/03/21 07:47:30;;;;;;;19.27;12.73;;;7.60;81.20;;;;;;4972549;28;20046;-68
2024/03/21 07:49:56;;;;;;;19.15;11.68;;;7.60;81.00;;;;;;4979218;28;20413;-70
2024/03/21 07:52:23;;;;;;;18.77;12.23;;;7.60;80.70;;;;;;4978270;28;20393;-70
2024/03/21 07:54:49;;;;;;;17.60;11.80;;;7.50;81.10;;;;;;4972678;28;20039;-67
2024/03/21 07:57:18;;;;;;;18.23;11.25;;;7.70;80.60;;;;;;4972282;28;20034;-70
2024/03/21 07:59:44;;;;;;;16.83;12.13;;;7.90;80.70;;;;;;4972630;28;20039;-69
2024/03/21 08:02:10;;;;;;;17.33;11.68;;;7.90;79.40;;;;;;4972339;28;20095;-69
2024/03/21 08:04:38;;;;;;;17.67;11.45;;;8.10;79.80;;;;;;4980339;28;20402;-67
2024/03/21 08:07:05;;;;;;;20.00;12.10;;;8.00;78.70;;;;;;4976113;28;20057;-69
2024/03/21 08:09:31;;;;;;;15.10;10.65;;;8.10;79.00;;;;;;4972379;28;20061;-68
2024/03/21 08:11:57;;;;;;;16.92;11.38;;;8.20;79.00;;;;;;4974637;28;20042;-68
2024/03/21 08:14:23;;;;;;;16.67;11.43;;;8.50;78.50;;;;;;4981978;28;20069;-69
2024/03/21 08:16:49;;;;;;;18.88;10.43;;;8.70;77.80;;;;;;5023424;28;20113;-69
2024/03/21 08:19:17;;;;;;;15.10;10.30;;;8.90;76.80;;;;;;4974026;28;20088;-70
2024/03/21 08:21:43;;;;;;;17.75;10.82;;;9.00;75.90;;;;;;4984894;28;20116;-68
2024/03/21 08:24:10;;;;;;;14.18;9.75;;;9.20;75.40;;;;;;4977212;28;20038;-68
2024/03/21 08:26:36;;;;;;;16.70;10.52;;;9.10;73.80;;;;;;4971944;28;20041;-68
2024/03/21 08:29:03;;;;;;;13.20;9.20;;;9.10;74.00;;;;;;4971899;28;20042;-69
2024/03/21 08:31:29;;;;;;;13.30;9.52;;;9.20;73.80;;;;;;4944489;28;20489;-69
2024/03/21 08:33:55;;;;;;;15.07;9.85;;;9.40;72.80;;;;;;4971894;28;20043;-68
2024/03/21 08:36:21;;;;;;;12.20;9.38;;;9.60;73.40;;;;;;4967808;28;20042;-70
2024/03/21 08:38:47;;;;;;;15.65;9.65;;;9.80;73.50;;;;;;4972040;28;20087;-70
2024/03/21 08:41:13;;;;;;;12.55;8.73;;;9.90;72.60;;;;;;4939595;28;20045;-70
2024/03/21 08:43:39;;;;;;;13.63;9.10;;;9.80;71.00;;;;;;4955991;28;20030;-67
2024/03/21 08:46:06;;;;;;;14.07;9.40;;;9.90;71.00;;;;;;4971463;28;20362;-69
2024/03/21 08:48:32;;;;;;;13.38;9.25;;;9.80;71.50;;;;;;4971988;28;20493;-69
2024/03/21 08:50:58;;;;;;;15.27;10.05;;;9.90;71.90;;;;;;4972397;28;20042;-70
2024/03/21 08:53:24;;;;;;;16.15;9.65;;;10.40;71.80;;;;;;4971234;28;20042;-69
2024/03/21 08:55:50;;;;;;;14.57;9.85;;;10.60;71.60;;;;;;4971385;28;20061;-70
2024/03/21 08:58:17;;;;;;;12.77;9.60;;;10.80;71.20;;;;;;4971815;28;20707;-71
2024/03/21 09:00:43;;;;;;;13.73;9.55;;;10.90;70.20;;;;;;4972009;28;20502;-69
2024/03/21 09:03:09;;;;;;;14.70;9.32;;;11.10;70.50;;;;;;4955923;28;20046;-70
2024/03/21 09:05:35;;;;;;;10.63;8.07;;;11.10;68.50;;;;;;4971207;28;20042;-71
2024/03/21 09:08:01;;;;;;;11.32;8.07;;;11.10;68.20;;;;;;4971563;28;20367;-70
2024/03/21 09:10:28;;;;;;;10.70;7.53;;;11.00;66.80;;;;;;4983620;28;20375;-70
2024/03/21 09:12:55;;;;;;;10.45;7.63;;;11.20;67.20;;;;;;4955687;28;20054;-69
2024/03/21 09:15:21;;;;;;;12.35;8.60;;;11.30;66.90;;;;;;4974675;28;20052;-69
2024/03/21 09:17:47;;;;;;;19.13;7.95;;;11.60;66.10;;;;;;4977273;28;20038;-70
2024/03/21 09:20:13;;;;;;;11.45;7.57;;;11.40;65.30;;;;;;4974142;28;20390;-70
2024/03/21 09:22:40;;;;;;;13.07;7.90;;;11.70;66.10;;;;;;4971176;28;20100;-70
2024/03/21 09:25:07;;;;;;;12.32;8.43;;;11.90;65.90;;;;;;4971267;28;20057;-69
2024/03/21 09:27:33;;;;;;;13.05;8.05;;;12.30;65.60;;;;;;4983681;28;20045;-70
2024/03/21 09:30:00;;;;;;;12.93;8.57;;;12.40;65.50;;;;;;4964005;28;20034;-69
2024/03/21 09:32:26;;;;;;;13.20;8.18;;;12.50;65.40;;;;;;4990636;28;20038;-69
2024/03/21 09:34:52;;;;;;;11.02;7.10;;;12.40;64.80;;;;;;4974883;28;20381;-69
2024/03/21 09:37:19;;;;;;;10.77;7.35;;;12.70;65.50;;;;;;4971163;28;20034;-71
2024/03/21 09:39:46;;;;;;;11.25;7.13;;;12.70;62.50;;;;;;4971875;28;20038;-68
2024/03/21 09:42:19;;;;;;;11.82;7.80;;;12.70;63.10;;;;;;4981922;28;20432;-69
2024/03/21 09:44:48;;;;;;;16.88;8.07;;;12.80;63.50;;;;;;4971803;28;20049;-69
2024/03/21 09:47:19;;;;;;;11.90;8.00;;;12.90;63.10;;;;;;4983617;28;20034;-69
2024/03/21 09:49:47;;;;;;;11.88;6.95;;;12.90;61.70;;;;;;4982147;28;20042;-68
2024/03/21 09:52:14;;;;;;;11.57;7.75;;;13.00;61.40;;;;;;4985588;28;20046;-71
2024/03/21 09:54:40;;;;;;;11.60;7.68;;;13.20;62.70;;;;;;4972939;28;20038;-69
2024/03/21 09:57:11;;;;;;;11.10;7.43;;;13.50;63.50;;;;;;4975251;28;20087;-68
2024/03/21 09:59:37;;;;;;;9.77;7.25;;;13.40;61.10;;;;;;4970604;28;20088;-70
2024/03/21 10:02:07;;;;;;;10.40;7.05;;;13.60;60.90;;;;;;4977304;28;20385;-68
2024/03/21 10:04:46;;;;;;;11.83;7.13;;;13.90;61.40;;;;;;4973447;28;20457;-69
2024/03/21 10:07:18;;;;;;;14.13;8.13;;;14.20;60.60;;;;;;4977112;28;20054;-68
2024/03/21 10:09:53;;;;;;;11.55;7.55;;;14.40;60.30;;;;;;4991434;28;20088;-68
2024/03/21 10:12:20;;;;;;;8.88;6.28;;;14.40;59.80;;;;;;4974248;28;20041;-71
2024/03/21 10:14:46;;;;;;;11.63;6.43;;;14.40;59.40;;;;;;4973262;28;20100;-69
2024/03/21 10:17:12;;;;;;;8.10;5.97;;;14.30;58.80;;;;;;4982737;28;20065;-69
2024/03/21 10:19:39;;;;;;;8.70;5.97;;;14.40;58.10;;;;;;4985811;28;20081;-68
2024/03/21 10:22:05;;;;;;;11.00;5.80;;;14.40;57.80;;;;;;4973839;28;20042;-69
2024/03/21 10:24:31;;;;;;;12.40;6.25;;;14.40;57.40;;;;;;4981396;28;20085;-69
2024/03/21 10:26:58;;;;;;;12.43;6.28;;;14.50;58.50;;;;;;4977647;28;20048;-71
2024/03/21 10:29:25;;;;;;;8.93;6.32;;;14.60;58.00;;;;;;4979627;28;20405;-69
2024/03/21 10:31:51;;;;;;;10.93;6.85;;;14.70;57.60;;;;;;4968111;28;20052;-70
2024/03/21 10:34:20;;;;;;;8.30;5.93;;;14.80;58.00;;;;;;4982219;28;20072;-69
2024/03/21 10:36:46;;;;;;;9.98;6.80;;;15.10;58.10;;;;;;4975679;28;20038;-71
2024/03/21 10:39:13;;;;;;;10.40;6.80;;;15.30;58.20;;;;;;4973642;28;20038;-70
2024/03/21 10:41:41;;;;;;;11.13;6.70;;;15.60;61.30;;;;;;4972954;28;20031;-70
2024/03/21 10:44:15;;;;;;;11.15;6.60;;;16.20;59.50;;;;;;4981773;28;20096;-70
2024/03/21 10:46:42;;;;;;;12.10;7.38;;;16.50;59.60;;;;;;4981679;28;20575;-70
2024/03/21 10:49:14;;;;;;;10.65;6.70;;;16.50;57.80;;;;;;4983073;28;20041;-70
2024/03/21 10:51:43;;;;;;;13.23;6.97;;;16.40;56.90;;;;;;4976317;28;20131;-69
2024/03/21 10:54:13;;;;;;;9.88;5.72;;;16.70;57.80;;;;;;4981951;28;20509;-69
2024/03/21 10:56:41;;;;;;;11.30;7.22;;;17.10;56.20;;;;;;4982162;28;20064;-69
2024/03/21 10:59:15;;;;;;;9.07;5.35;;;17.10;57.10;;;;;;4978189;28;20058;-69
2024/03/21 11:01:43;;;;;;;8.77;5.07;;;17.00;56.50;;;;;;4979407;28;20043;-70
2024/03/21 11:04:14;;;;;;;9.80;5.65;;;17.00;54.90;;;;;;4976318;28;20031;-69
2024/03/21 11:06:42;;;;;;;7.35;4.88;;;16.80;55.60;;;;;;4979386;28;20033;-68
2024/03/21 11:09:12;;;;;;;7.97;5.00;;;17.30;54.30;;;;;;4975112;28;20038;-70
2024/03/21 11:11:38;;;;;;;7.60;4.50;;;17.30;53.90;;;;;;4977486;28;20155;-69
2024/03/21 11:14:08;;;;;;;7.07;4.85;;;17.40;53.60;;;;;;4972676;28;20346;-70
2024/03/21 11:16:55;;;;;;;7.63;5.18;;;17.60;54.30;;;;;;4992982;28;20517;-70
2024/03/21 11:19:24;;;;;;;8.88;5.18;;;17.70;53.20;;;;;;4991433;28;20102;-69
2024/03/21 11:21:50;;;;;;;7.75;4.68;;;18.00;53.50;;;;;;4975422;28;20038;-68
2024/03/21 11:24:16;;;;;;;9.15;5.00;;;18.70;52.00;;;;;;4972722;28;20091;-70
2024/03/21 11:26:42;;;;;;;8.88;5.10;;;18.20;51.10;;;;;;4971901;28;20076;-70
2024/03/21 11:29:12;;;;;;;7.72;4.82;;;17.80;51.80;;;;;;4972483;28;20069;-71
2024/03/21 11:31:43;;;;;;;7.68;4.85;;;17.90;52.00;;;;;;4978715;28;20385;-69
2024/03/21 11:34:09;;;;;;;;;;;18.30;53.00;;;;;;4982011;28;20040;-69
2024/03/21 11:36:35;;;;;;;6.35;4.40;;;18.50;51.00;;;;;;4972344;28;19929;-70
2024/03/21 11:39:03;;;;;;;10.57;5.20;;;18.40;50.90;;;;;;4974197;28;20039;-70
2024/03/21 11:41:30;;;;;;;8.50;4.70;;;18.20;51.20;;;;;;4975572;28;20384;-68
2024/03/21 11:43:57;;;;;;;9.48;5.30;;;18.30;52.00;;;;;;4967170;28;20539;-70
2024/03/21 11:46:24;;;;;;;10.57;4.90;;;18.60;51.60;;;;;;4956372;28;20045;-71
2024/03/21 11:49:04;;;;;;;9.13;5.00;;;18.70;51.10;;;;;;4973578;28;20039;-69
2024/03/21 11:51:32;;;;;;;8.70;4.75;;;19.20;50.60;;;;;;4972247;28;20038;-69
2024/03/21 11:54:05;;;;;;;8.95;4.95;;;19.40;51.20;;;;;;4974674;28;20041;-69
2024/03/21 11:56:33;;;;;;;6.38;4.43;;;19.30;49.70;;;;;;4979438;28;20041;-66
2024/03/21 11:59:00;;;;;;;8.63;4.72;;;19.40;50.40;;;;;;4972279;28;20038;-68
2024/03/21 12:01:27;;;;;;;7.72;4.38;;;19.90;48.30;;;;;;4981092;28;20362;-68
2024/03/21 12:03:53;;;;;;;11.93;5.22;;;20.10;49.40;;;;;;4976780;28;20042;-69
2024/03/21 12:06:19;;;;;;;11.70;5.15;;;21.80;47.70;;;;;;4976838;28;20065;-70
2024/03/21 12:08:47;;;;;;;8.50;4.60;;;25.60;45.10;;;;;;4985755;28;20373;-69
2024/03/21 12:11:18;;;;;;;8.98;4.85;;;28.10;42.10;;;;;;4970469;28;20038;-68
2024/03/21 12:13:45;;;;;;;7.03;4.30;;;28.70;40.80;;;;;;4972520;28;20030;-70
2024/03/21 12:16:16;;;;;;;7.82;4.28;;;30.10;40.20;;;;;;4982428;28;20038;-68
2024/03/21 12:18:43;;;;;;;6.95;4.30;;;30.50;38.30;;;;;;4977921;28;20116;-68
2024/03/21 12:21:18;;;;;;;6.03;3.97;;;30.60;37.30;;;;;;4994039;28;20421;-69
2024/03/21 12:23:45;;;;;;;7.07;4.07;;;30.10;37.90;;;;;;4963554;28;20482;-68
2024/03/21 12:26:12;;;;;;;8.32;3.95;;;29.30;38.80;;;;;;4974771;28;20054;-68
2024/03/21 12:28:39;;;;;;;8.65;4.43;;;30.30;37.50;;;;;;4974411;28;20525;-70
2024/03/21 12:31:10;;;;;;;7.72;4.80;;;30.20;37.60;;;;;;4978482;28;20435;-71
2024/03/21 12:33:36;;;;;;;9.25;4.70;;;31.40;37.40;;;;;;4972318;28;20046;-69
2024/03/21 12:36:03;;;;;;;7.90;3.92;;;31.30;36.50;;;;;;4972151;28;20035;-70
2024/03/21 12:38:30;;;;;;;8.38;4.97;;;30.50;38.30;;;;;;4976748;28;20038;-68
2024/03/21 12:41:00;;;;;;;7.57;4.20;;;31.10;36.90;;;;;;4980583;28;20428;-69
2024/03/21 12:43:27;;;;;;;7.07;4.20;;;32.10;36.30;;;;;;4966619;28;20072;-70